81  °F
Temperature
27  °C
Temperature
18  °C
 Dewpoint
64  °F
  Dewpoint
58  %
 Humidity
  Temperature
9  mph
Wind Speed
8  kts
Wind Speed
14  km/h
Wind Speed
4.0  m/s
Wind Speed
220°
South West

Wind Speed
Clear
Conditions
Pressure 29.8 (inHG) - 1009.12 (mb)
Visibility 10.0 (mi) - 16.1 (km)

Sky Conditions
KPCW
Location Erie-Ottawa International 5 mi (8.05 km)
Metar :KPCW 041715Z AUTO 22008KT 10SM CLR 27/18 A2980 RMK AO2
Thu 4th June 13:15 pm

Nearest Airport
https://www.checkwx.com/weather/KPCW
  Metar Aviation API Data Provided by https://www.checkwx.com/ Original CSS/SVG/PHP scripts by weather34.com © 2015-2020